createdAt,value
2023-03-11T00:01:06.510Z,1.85
2023-03-11T00:03:34.951Z,1.83
2023-03-11T00:06:02.369Z,2.30
2023-03-11T00:08:30.680Z,2.20
2023-03-11T00:11:00.590Z,2.17
2023-03-11T00:13:28.737Z,2.20
2023-03-11T00:16:00.537Z,2.15
2023-03-11T00:18:30.314Z,2.40
2023-03-11T00:20:58.393Z,2.45
2023-03-11T00:23:26.507Z,2.42
2023-03-11T00:25:53.302Z,2.58
2023-03-11T00:28:22.214Z,2.15
2023-03-11T00:30:50.483Z,2.50
2023-03-11T00:33:17.090Z,2.17
2023-03-11T00:35:45.916Z,2.30
2023-03-11T00:38:15.770Z,2.47
2023-03-11T00:40:43.546Z,2.30
2023-03-11T00:43:10.250Z,2.55
2023-03-11T00:45:38.564Z,2.03
2023-03-11T00:48:06.373Z,2.53
2023-03-11T00:50:35.776Z,2.33
2023-03-11T00:53:04.163Z,2.55
2023-03-11T00:55:33.244Z,2.67
2023-03-11T00:58:02.316Z,2.70
2023-03-11T01:00:32.379Z,2.67
2023-03-11T01:03:07.412Z,2.45
2023-03-11T01:05:34.905Z,2.53
2023-03-11T01:08:04.230Z,2.35
2023-03-11T01:10:33.121Z,3.03
2023-03-11T01:13:01.565Z,2.60
2023-03-11T01:15:37.132Z,2.70
2023-03-11T01:18:05.384Z,2.38
2023-03-11T01:20:32.179Z,2.80
2023-03-11T01:22:58.788Z,2.45
2023-03-11T01:25:27.224Z,3.15
2023-03-11T01:27:53.781Z,2.95
2023-03-11T01:30:25.751Z,2.90
2023-03-11T01:32:55.630Z,2.78
2023-03-11T01:35:24.737Z,2.70
2023-03-11T01:37:52.502Z,3.03
2023-03-11T01:40:24.486Z,3.15
2023-03-11T01:42:50.958Z,2.70
2023-03-11T01:46:04.159Z,2.70
2023-03-11T01:48:30.679Z,3.10
2023-03-11T01:50:57.852Z,2.80
2023-03-11T01:53:25.144Z,2.88
2023-03-11T01:55:54.246Z,3.03
2023-03-11T01:58:25.657Z,2.80
2023-03-11T02:06:25.035Z,3.22
2023-03-11T02:08:51.783Z,3.55
2023-03-11T02:11:24.890Z,3.35
2023-03-11T02:13:54.680Z,2.80
2023-03-11T02:16:21.414Z,2.70
2023-03-11T02:18:48.229Z,2.88
2023-03-11T02:21:27.511Z,2.95
2023-03-11T02:24:02.949Z,2.78
2023-03-11T02:27:00.281Z,2.45
2023-03-11T02:29:28.478Z,2.60
2023-03-11T02:31:56.890Z,2.70
2023-03-11T02:34:30.396Z,2.83
2023-03-11T02:36:57.131Z,2.60
2023-03-11T02:39:33.468Z,2.88
2023-03-11T02:42:02.536Z,2.60
2023-03-11T02:44:29.578Z,2.40
2023-03-11T02:46:58.220Z,2.38
2023-03-11T02:49:25.111Z,2.85
2023-03-11T02:51:52.405Z,2.38
2023-03-11T02:54:18.931Z,2.40
2023-03-11T02:56:45.454Z,2.85
2023-03-11T02:59:12.030Z,2.38
2023-03-11T03:01:38.769Z,2.58
2023-03-11T03:04:05.402Z,2.83
2023-03-11T03:06:31.946Z,3.25
2023-03-11T03:09:00.223Z,2.80
2023-03-11T03:11:26.760Z,2.92
2023-03-11T03:13:53.270Z,3.25
2023-03-11T03:16:26.487Z,2.90
2023-03-11T03:18:53.021Z,3.63
2023-03-11T03:21:19.604Z,2.80
2023-03-11T03:23:46.287Z,3.28
2023-03-11T03:26:14.245Z,2.70
2023-03-11T03:28:41.024Z,2.90
2023-03-11T03:31:12.440Z,2.80
2023-03-11T03:33:39.015Z,3.10
2023-03-11T03:36:11.681Z,3.17
2023-03-11T03:38:42.556Z,2.67
2023-03-11T03:41:09.774Z,3.03
2023-03-11T03:43:36.313Z,2.72
2023-03-11T03:46:07.322Z,2.47
2023-03-11T03:48:34.319Z,2.75
2023-03-11T03:51:10.747Z,2.83
2023-03-11T03:53:37.374Z,2.80
2023-03-11T03:56:08.957Z,2.60
2023-03-11T03:58:35.873Z,2.70
2023-03-11T04:01:07.994Z,2.50
2023-03-11T04:03:35.890Z,2.45
2023-03-11T04:06:13.198Z,2.17
2023-03-11T04:08:40.596Z,2.22
2023-03-11T04:11:07.369Z,2.50
2023-03-11T04:13:34.128Z,2.47
2023-03-11T04:16:03.768Z,2.50
2023-03-11T04:18:30.424Z,2.33
2023-03-11T04:20:57.216Z,2.20
2023-03-11T04:23:25.826Z,2.60
2023-03-11T04:25:52.327Z,2.10
2023-03-11T04:28:19.812Z,2.58
2023-03-11T04:30:46.331Z,2.65
2023-03-11T04:33:14.883Z,3.03
2023-03-11T04:35:43.241Z,2.58
2023-03-11T04:38:09.780Z,2.58
2023-03-11T04:40:39.484Z,2.50
2023-03-11T04:43:10.509Z,1.98
2023-03-11T04:45:41.046Z,2.60
2023-03-11T04:48:08.171Z,2.63
2023-03-11T04:50:37.381Z,2.63
2023-03-11T04:53:03.946Z,2.10
2023-03-11T04:55:30.693Z,2.22
2023-03-11T04:57:59.779Z,2.28
2023-03-11T05:00:26.369Z,2.60
2023-03-11T05:02:53.354Z,2.38
2023-03-11T05:05:29.242Z,2.30
2023-03-11T05:07:57.979Z,2.50
2023-03-11T05:10:24.820Z,2.78
2023-03-11T05:12:52.551Z,2.05
2023-03-11T05:15:19.726Z,2.78
2023-03-11T05:17:46.400Z,2.40
2023-03-11T05:20:15.958Z,2.15
2023-03-11T05:22:43.120Z,2.22
2023-03-11T05:25:14.478Z,2.13
2023-03-11T05:27:43.383Z,1.70
2023-03-11T05:30:10.558Z,2.20
2023-03-11T05:32:37.198Z,2.20
2023-03-11T05:35:06.073Z,2.10
2023-03-11T05:37:35.442Z,2.22
2023-03-11T05:40:01.992Z,2.20
2023-03-11T05:42:30.282Z,1.95
2023-03-11T05:44:56.812Z,2.40
2023-03-11T05:47:23.454Z,2.10
2023-03-11T05:49:58.215Z,2.00
2023-03-11T05:52:24.751Z,1.90
2023-03-11T05:54:52.285Z,1.95
2023-03-11T05:57:21.294Z,1.77
2023-03-11T05:59:47.798Z,1.92
2023-03-11T06:02:14.373Z,2.00
2023-03-11T06:04:43.278Z,1.90
2023-03-11T06:07:12.083Z,1.95
2023-03-11T06:09:38.705Z,2.08
2023-03-11T06:12:05.763Z,1.65
2023-03-11T06:14:35.052Z,2.03
2023-03-11T06:17:01.554Z,1.83
2023-03-11T06:19:30.409Z,1.80
2023-03-11T06:21:56.964Z,1.70
2023-03-11T06:24:23.500Z,1.90
2023-03-11T06:26:55.151Z,1.60
2023-03-11T06:29:24.449Z,1.80
2023-03-11T06:31:51.059Z,1.80
2023-03-11T06:34:19.555Z,1.80
2023-03-11T06:36:46.300Z,1.55
2023-03-11T06:39:14.817Z,2.03
2023-03-11T06:41:42.518Z,2.40
2023-03-11T06:44:10.465Z,2.25
2023-03-11T06:46:37.175Z,2.38
2023-03-11T06:49:05.820Z,2.83
2023-03-11T06:51:32.345Z,2.58
2023-03-11T06:53:58.933Z,2.78
2023-03-11T06:56:27.170Z,3.08
2023-03-11T06:58:55.953Z,2.67
2023-03-11T07:01:25.381Z,2.75
2023-03-11T07:03:52.660Z,3.25
2023-03-11T07:06:24.639Z,2.97
2023-03-11T07:08:52.851Z,2.95
2023-03-11T07:11:22.912Z,2.50
2023-03-11T07:13:49.621Z,2.75
2023-03-11T07:16:22.150Z,2.92
2023-03-11T07:18:51.675Z,2.90
2023-03-11T07:21:21.267Z,3.17
2023-03-11T07:23:49.302Z,2.75
2023-03-11T07:26:20.133Z,3.13
2023-03-11T07:28:47.285Z,2.40
2023-03-11T07:31:17.183Z,3.50
2023-03-11T07:33:50.553Z,2.80
2023-03-11T07:36:20.028Z,2.83
2023-03-11T07:38:47.138Z,2.90
2023-03-11T07:41:16.394Z,2.60
2023-03-11T07:43:43.693Z,2.58
2023-03-11T07:46:20.635Z,3.13
2023-03-11T07:48:49.545Z,3.30
2023-03-11T07:51:21.013Z,2.95
2023-03-11T07:53:48.340Z,2.70
2023-03-11T07:56:16.601Z,2.40
2023-03-11T07:58:45.660Z,2.45
2023-03-11T08:01:18.398Z,2.92
2023-03-11T08:03:49.663Z,2.78
2023-03-11T08:06:29.868Z,2.80
2023-03-11T08:08:56.424Z,2.80
2023-03-11T08:11:23.892Z,2.80
2023-03-11T08:13:51.526Z,2.30
2023-03-11T08:16:20.773Z,2.13
2023-03-11T08:18:49.098Z,2.30
2023-03-11T08:21:28.686Z,2.30
2023-03-11T08:23:58.849Z,2.60
2023-03-11T08:26:25.518Z,2.15
2023-03-11T08:28:53.771Z,2.35
2023-03-11T08:31:25.609Z,2.10
2023-03-11T08:33:54.840Z,2.20
2023-03-11T08:36:26.211Z,2.70
2023-03-11T08:38:53.013Z,2.70
2023-03-11T08:41:19.888Z,3.63
2023-03-11T08:43:48.760Z,3.28
2023-03-11T08:46:33.489Z,3.42
2023-03-11T08:49:04.556Z,3.00
2023-03-11T08:51:33.198Z,4.15
2023-03-11T08:54:00.852Z,3.60
2023-03-11T08:56:28.564Z,3.70
2023-03-11T08:58:55.271Z,3.22
2023-03-11T09:01:23.014Z,3.28
2023-03-11T09:03:54.023Z,3.58
2023-03-11T09:06:20.701Z,3.58
2023-03-11T09:08:48.589Z,3.20
2023-03-11T09:11:18.196Z,3.47
2023-03-11T09:13:45.043Z,3.50
2023-03-11T09:16:17.495Z,3.50
2023-03-11T09:18:45.788Z,3.22
2023-03-11T09:21:13.097Z,2.90
2023-03-11T09:23:42.169Z,2.70
2023-03-11T09:26:19.614Z,2.50
2023-03-11T09:28:49.076Z,2.60
2023-03-11T09:31:20.386Z,2.33
2023-03-11T09:33:47.357Z,2.88
2023-03-11T09:36:16.639Z,2.40
2023-03-11T09:41:57.172Z,2.40
2023-03-11T09:44:37.246Z,2.55
2023-03-11T09:47:17.686Z,2.60
2023-03-11T09:50:15.275Z,2.22
2023-03-11T09:53:11.949Z,2.38
2023-03-11T09:58:17.796Z,2.13
2023-03-11T10:00:45.156Z,2.78
2023-03-11T10:03:24.461Z,3.05
2023-03-11T10:05:58.513Z,3.05
2023-03-11T10:08:33.324Z,2.88
2023-03-11T10:11:37.267Z,2.70
2023-03-11T10:14:24.277Z,2.50
2023-03-11T10:16:50.747Z,2.80
2023-03-11T10:19:24.214Z,3.08
2023-03-11T10:22:16.763Z,3.00
2023-03-11T10:25:05.278Z,2.58
2023-03-11T10:27:57.519Z,2.78
2023-03-11T10:30:36.360Z,2.42
2023-03-11T10:33:46.596Z,2.83
2023-03-11T10:36:24.257Z,2.40
2023-03-11T10:38:55.731Z,2.38
2023-03-11T10:41:30.853Z,1.90
2023-03-11T10:44:06.982Z,2.28
2023-03-11T10:46:33.802Z,2.17
2023-03-11T10:49:00.319Z,2.13
2023-03-11T10:51:34.415Z,2.20
2023-03-11T10:54:03.153Z,2.20
2023-03-11T10:56:34.454Z,2.25
2023-03-11T10:59:06.110Z,2.10
2023-03-11T11:01:32.777Z,1.77
2023-03-11T11:04:01.671Z,1.90
2023-03-11T11:06:31.520Z,1.85
2023-03-11T11:09:19.256Z,2.00
2023-03-11T11:12:23.329Z,2.30
2023-03-11T11:14:52.802Z,1.65
2023-03-11T11:17:47.411Z,2.10
2023-03-11T11:20:19.258Z,1.92
2023-03-11T11:22:58.731Z,1.80
2023-03-11T11:25:27.890Z,1.60
2023-03-11T11:28:20.596Z,1.88
2023-03-11T11:30:56.846Z,1.80
2023-03-11T11:33:34.742Z,1.65
2023-03-11T11:36:05.628Z,1.60
2023-03-11T11:38:32.680Z,1.65
2023-03-11T11:41:05.162Z,1.50
2023-03-11T11:43:46.369Z,1.85
2023-03-11T11:46:23.301Z,1.60
2023-03-11T11:49:00.046Z,1.90
2023-03-11T11:51:33.646Z,1.90
2023-03-11T11:54:24.729Z,1.60
2023-03-11T11:56:51.399Z,1.45
2023-03-11T11:59:24.572Z,1.35
2023-03-11T12:02:21.395Z,1.30
2023-03-11T12:07:37.845Z,1.20
2023-03-11T12:10:32.145Z,0.90
2023-03-11T12:13:29.328Z,1.05
2023-03-11T12:16:20.513Z,1.30
2023-03-11T12:18:56.783Z,1.13
2023-03-11T12:22:00.496Z,1.20
2023-03-11T12:24:51.674Z,1.40
2023-03-11T12:27:27.581Z,1.23
2023-03-11T12:30:01.717Z,1.33
2023-03-11T12:32:38.493Z,1.40
2023-03-11T12:35:30.559Z,1.20
2023-03-11T12:38:23.923Z,1.13
2023-03-11T12:41:08.121Z,1.08
2023-03-11T12:43:34.561Z,1.08
2023-03-11T12:46:10.752Z,1.20
2023-03-11T12:48:49.785Z,1.17
2023-03-11T12:51:36.406Z,1.30
2023-03-11T12:54:30.774Z,1.00
2023-03-11T12:57:03.961Z,0.90
2023-03-11T13:00:12.209Z,1.02
2023-03-11T13:02:44.686Z,1.15
2023-03-11T13:05:35.618Z,1.35
2023-03-11T13:08:15.970Z,1.10
2023-03-11T13:10:49.857Z,1.05
2023-03-11T13:13:24.254Z,1.40
2023-03-11T13:15:52.367Z,1.40
2023-03-11T13:18:23.988Z,1.60
2023-03-11T13:20:58.177Z,1.42
2023-03-11T13:23:26.221Z,1.65
2023-03-11T13:25:58.925Z,1.30
2023-03-11T13:28:55.591Z,1.50
2023-03-11T13:34:07.257Z,1.25
2023-03-11T13:37:04.650Z,1.30
2023-03-11T13:39:55.097Z,1.45
2023-03-11T13:42:28.956Z,1.10
2023-03-11T13:44:58.702Z,1.30
2023-03-11T13:47:27.251Z,2.58
2023-03-11T13:50:08.139Z,2.03
2023-03-11T13:52:39.513Z,1.10
2023-03-11T13:55:09.235Z,1.45
2023-03-11T13:57:39.886Z,1.00
2023-03-11T14:00:17.158Z,1.40
2023-03-11T14:02:51.370Z,1.30
2023-03-11T14:05:24.132Z,1.20
2023-03-11T14:07:59.650Z,1.20
2023-03-11T14:10:29.577Z,1.20
2023-03-11T14:13:16.343Z,1.00
2023-03-11T14:15:52.484Z,1.00
2023-03-11T14:18:44.918Z,1.10
2023-03-11T14:21:20.400Z,1.20
2023-03-11T14:23:49.289Z,1.08
2023-03-11T14:26:19.964Z,1.10
2023-03-11T14:28:51.402Z,1.23
2023-03-11T14:31:41.186Z,1.20
2023-03-11T14:34:23.267Z,1.10
2023-03-11T14:36:56.980Z,1.08
2023-03-11T14:39:23.525Z,1.02
2023-03-11T14:41:55.346Z,1.08
2023-03-11T14:44:23.530Z,1.40
2023-03-11T14:46:52.208Z,1.13
2023-03-11T14:49:22.303Z,1.20
2023-03-11T14:51:58.892Z,1.10
2023-03-11T14:54:33.454Z,1.02
2023-03-11T14:57:11.769Z,1.15
2023-03-11T14:59:41.694Z,1.00
2023-03-11T15:02:36.498Z,1.00
2023-03-11T15:05:17.298Z,0.88
2023-03-11T15:07:44.301Z,0.90
2023-03-11T15:10:11.816Z,0.80
2023-03-11T15:12:45.625Z,0.85
2023-03-11T15:15:25.281Z,0.90
2023-03-11T15:17:56.268Z,0.77
2023-03-11T15:20:32.260Z,1.02
2023-03-11T15:23:02.494Z,0.82
2023-03-11T15:25:33.353Z,0.90
2023-03-11T15:28:13.582Z,0.90
2023-03-11T15:30:40.551Z,0.80
2023-03-11T15:33:23.354Z,1.10
2023-03-11T15:35:50.355Z,0.60
2023-03-11T15:38:25.904Z,0.98
2023-03-11T15:40:57.502Z,0.80
2023-03-11T15:43:46.752Z,1.00
2023-03-11T15:46:16.791Z,1.00
2023-03-11T15:48:43.560Z,1.10
2023-03-11T15:51:20.605Z,1.10
2023-03-11T15:53:47.107Z,1.30
2023-03-11T15:56:22.758Z,1.27
2023-03-11T15:58:49.622Z,1.10
2023-03-11T16:01:18.049Z,1.20
2023-03-11T16:03:46.376Z,1.08
2023-03-11T16:06:12.899Z,1.40
2023-03-11T16:08:39.380Z,1.48
2023-03-11T16:11:07.634Z,1.20
2023-03-11T16:13:34.386Z,1.20
2023-03-11T16:16:02.353Z,1.17
2023-03-11T16:18:30.777Z,1.25
2023-03-11T16:20:57.253Z,1.27
2023-03-11T16:23:30.732Z,1.08
2023-03-11T16:26:04.424Z,1.27
2023-03-11T16:28:31.276Z,1.02
2023-03-11T16:30:57.813Z,1.10
2023-03-11T16:33:24.578Z,1.00
2023-03-11T16:35:51.240Z,1.05
2023-03-11T16:38:19.666Z,1.10
2023-03-11T16:40:57.080Z,1.30
2023-03-11T16:43:24.043Z,1.30
2023-03-11T16:45:50.660Z,1.38
2023-03-11T16:48:19.330Z,1.30
2023-03-11T16:50:45.808Z,1.00
2023-03-11T16:53:14.054Z,1.33
2023-03-11T16:55:45.157Z,1.48
2023-03-11T16:58:12.746Z,1.42
2023-03-11T17:00:41.036Z,1.40
2023-03-11T17:03:13.179Z,1.85
2023-03-11T17:05:39.933Z,1.52
2023-03-11T17:08:06.753Z,1.50
2023-03-11T17:10:45.433Z,1.48
2023-03-11T17:13:14.111Z,1.42
2023-03-11T17:15:44.375Z,1.60
2023-03-11T17:18:18.280Z,1.60
2023-03-11T17:20:45.774Z,1.42
2023-03-11T17:23:12.348Z,1.33
2023-03-11T17:25:42.577Z,2.13
2023-03-11T17:28:09.466Z,2.30
2023-03-11T17:30:37.470Z,2.20
2023-03-11T17:33:08.693Z,2.65
2023-03-11T17:35:35.296Z,4.20
2023-03-11T17:38:01.918Z,3.05
2023-03-11T17:40:32.250Z,2.67
2023-03-11T17:43:03.972Z,2.40
2023-03-11T17:45:32.887Z,2.60
2023-03-11T17:47:59.552Z,3.85
2023-03-11T17:50:26.454Z,2.95
2023-03-11T17:52:53.587Z,2.70
2023-03-11T17:55:20.253Z,2.22
2023-03-11T17:57:47.020Z,2.58
2023-03-11T18:00:15.090Z,2.42
2023-03-11T18:02:42.192Z,2.53
2023-03-11T18:05:09.495Z,1.73
2023-03-11T18:07:39.003Z,2.08
2023-03-11T18:10:19.263Z,1.60
2023-03-11T18:12:46.773Z,1.50
2023-03-11T18:15:19.237Z,1.67
2023-03-11T18:17:49.312Z,1.50
2023-03-11T18:20:17.013Z,4.38
2023-03-11T18:22:46.663Z,2.78
2023-03-11T18:25:18.569Z,2.20
2023-03-11T18:27:48.455Z,2.50
2023-03-11T18:30:15.018Z,2.20
2023-03-11T18:32:43.450Z,2.22
2023-03-11T18:35:10.576Z,2.78
2023-03-11T18:37:37.183Z,2.20
2023-03-11T18:40:05.673Z,2.25
2023-03-11T18:42:32.300Z,2.10
2023-03-11T18:44:59.089Z,2.10
2023-03-11T18:47:25.682Z,2.03
2023-03-11T18:49:54.954Z,2.05
2023-03-11T18:52:22.566Z,2.38
2023-03-11T18:54:49.073Z,2.10
2023-03-11T18:57:15.629Z,2.10
2023-03-11T18:59:42.119Z,1.98
2023-03-11T19:02:15.495Z,2.20
2023-03-11T19:04:41.989Z,2.63
2023-03-11T19:07:08.544Z,3.00
2023-03-11T19:09:36.833Z,3.30
2023-03-11T19:12:03.496Z,2.50
2023-03-11T19:14:30.342Z,2.42
2023-03-11T19:16:57.219Z,2.22
2023-03-11T19:19:23.714Z,2.58
2023-03-11T19:21:50.224Z,2.63
2023-03-11T19:24:16.834Z,2.00
2023-03-11T19:26:46.679Z,2.10
2023-03-11T19:29:14.273Z,2.17
2023-03-11T19:31:41.165Z,2.30
2023-03-11T19:34:07.762Z,2.80
2023-03-11T19:39:29.643Z,2.30
2023-03-11T19:41:59.990Z,2.35
2023-03-11T19:44:26.728Z,2.10
2023-03-11T19:46:55.400Z,2.10
2023-03-11T19:49:22.128Z,2.38
2023-03-11T19:51:50.601Z,2.80
2023-03-11T19:54:20.533Z,2.58
2023-03-11T19:56:50.730Z,2.90
2023-03-11T19:59:17.477Z,3.53
2023-03-11T20:01:44.157Z,2.58
2023-03-11T20:04:11.114Z,2.45
2023-03-11T20:06:37.733Z,2.28
2023-03-11T20:09:07.746Z,2.30
2023-03-11T20:11:37.853Z,2.15
2023-03-11T20:14:06.286Z,2.17
2023-03-11T20:16:33.041Z,2.60
2023-03-11T20:18:59.563Z,2.40
2023-03-11T20:21:26.271Z,2.38
2023-03-11T20:23:56.546Z,2.70
2023-03-11T20:26:24.063Z,2.30
2023-03-11T20:28:54.377Z,2.70
2023-03-11T20:31:23.592Z,2.42
2023-03-11T20:33:51.681Z,2.70
2023-03-11T20:36:28.358Z,3.03
2023-03-11T20:38:55.685Z,2.88
2023-03-11T20:41:23.507Z,3.05
2023-03-11T20:43:56.040Z,2.50
2023-03-11T20:46:22.898Z,2.60
2023-03-11T20:48:49.617Z,2.33
2023-03-11T20:51:22.131Z,2.42
2023-03-11T20:53:49.224Z,2.38
2023-03-11T20:56:19.145Z,2.63
2023-03-11T20:58:50.350Z,2.90
2023-03-11T21:01:29.643Z,3.40
2023-03-11T21:04:00.491Z,2.88
2023-03-11T21:06:30.278Z,3.40
2023-03-11T21:08:59.689Z,3.55
2023-03-11T21:11:28.660Z,2.78
2023-03-11T21:13:55.527Z,3.33
2023-03-11T21:16:22.209Z,3.17
2023-03-11T21:18:50.601Z,3.35
2023-03-11T21:21:18.031Z,3.42
2023-03-11T21:23:45.902Z,3.67
2023-03-11T21:26:14.899Z,3.33
2023-03-11T21:28:46.259Z,3.38
2023-03-11T21:31:19.520Z,3.22
2023-03-11T21:33:46.612Z,3.38
2023-03-11T21:36:14.457Z,3.40
2023-03-11T21:38:41.386Z,3.15
2023-03-11T21:41:13.536Z,3.70
2023-03-11T21:43:46.716Z,3.40
2023-03-11T21:46:16.231Z,3.20
2023-03-11T21:48:43.201Z,3.78
2023-03-11T21:51:11.529Z,2.90
2023-03-11T21:53:38.235Z,3.33
2023-03-11T21:56:05.560Z,2.92
2023-03-11T21:58:35.454Z,3.42
2023-03-11T22:01:06.968Z,3.33
2023-03-11T22:03:35.867Z,3.20
2023-03-11T22:06:05.928Z,3.63
2023-03-11T22:08:32.662Z,3.75
2023-03-11T22:10:59.308Z,3.55
2023-03-11T22:13:28.457Z,3.13
2023-03-11T22:15:55.121Z,3.28
2023-03-11T22:18:21.720Z,2.78
2023-03-11T22:20:56.240Z,2.85
2023-03-11T22:23:22.734Z,2.83
2023-03-11T22:25:49.260Z,2.60
2023-03-11T22:28:15.812Z,2.25
2023-03-11T22:30:42.320Z,2.35
2023-03-11T22:33:08.950Z,2.42
2023-03-11T22:35:35.956Z,2.60
2023-03-11T22:38:02.855Z,2.13
2023-03-11T22:40:31.412Z,2.35
2023-03-11T22:43:04.191Z,2.10
2023-03-11T22:45:32.449Z,2.65
2023-03-11T22:47:59.610Z,2.03
2023-03-11T22:50:26.166Z,2.03
2023-03-11T22:52:55.737Z,2.60
2023-03-11T22:55:22.271Z,2.60
2023-03-11T22:57:48.778Z,2.50
2023-03-11T23:00:21.205Z,2.30
2023-03-11T23:02:52.178Z,2.25
2023-03-11T23:05:31.520Z,2.63
2023-03-11T23:07:58.565Z,2.40
2023-03-11T23:10:25.148Z,2.28
2023-03-11T23:12:51.848Z,1.92
2023-03-11T23:15:19.261Z,2.63
2023-03-11T23:17:47.796Z,2.20
2023-03-11T23:20:17.702Z,2.53
2023-03-11T23:22:44.292Z,2.50
2023-03-11T23:25:14.685Z,2.38
2023-03-11T23:27:42.765Z,2.92
2023-03-11T23:30:15.537Z,2.63
2023-03-11T23:32:42.352Z,2.80
2023-03-11T23:35:09.521Z,2.28
2023-03-11T23:37:36.023Z,2.55
2023-03-11T23:40:02.522Z,2.38
2023-03-11T23:42:32.513Z,2.67
2023-03-11T23:44:59.205Z,2.53
2023-03-11T23:47:26.465Z,2.70
2023-03-11T23:49:54.924Z,2.65
2023-03-11T23:52:21.482Z,2.90
2023-03-11T23:54:47.961Z,2.70
2023-03-11T23:57:16.250Z,2.42
2023-03-11T23:59:45.097Z,2.95
